sensor_id;sensor_type;location;lat;lon;timestamp;P1;durP1;ratioP1;P2;durP2;ratioP2
55784;SDS011;41709;52.536;5.688;2022-11-20T00:01:17;52.83;;;30.85;;
55784;SDS011;41709;52.536;5.688;2022-11-20T00:03:45;42.17;;;22.67;;
55784;SDS011;41709;52.536;5.688;2022-11-20T00:06:12;29.30;;;16.55;;
55784;SDS011;41709;52.536;5.688;2022-11-20T00:08:40;24.65;;;14.00;;
55784;SDS011;41709;52.536;5.688;2022-11-20T00:11:06;21.27;;;12.65;;
55784;SDS011;41709;52.536;5.688;2022-11-20T00:13:34;19.63;;;12.23;;
55784;SDS011;41709;52.536;5.688;2022-11-20T00:16:00;20.75;;;11.98;;
55784;SDS011;41709;52.536;5.688;2022-11-20T00:18:28;19.00;;;11.07;;
55784;SDS011;41709;52.536;5.688;2022-11-20T00:21:00;17.90;;;11.57;;
55784;SDS011;41709;52.536;5.688;2022-11-20T00:23:26;20.33;;;11.88;;
55784;SDS011;41709;52.536;5.688;2022-11-20T00:25:52;18.45;;;11.95;;
55784;SDS011;41709;52.536;5.688;2022-11-20T00:28:17;21.80;;;12.88;;
55784;SDS011;41709;52.536;5.688;2022-11-20T00:30:43;19.42;;;11.57;;
55784;SDS011;41709;52.536;5.688;2022-11-20T00:33:08;21.00;;;12.48;;
55784;SDS011;41709;52.536;5.688;2022-11-20T00:35:34;21.98;;;13.38;;
55784;SDS011;41709;52.536;5.688;2022-11-20T00:37:59;21.48;;;11.57;;
55784;SDS011;41709;52.536;5.688;2022-11-20T00:40:25;20.52;;;12.35;;
55784;SDS011;41709;52.536;5.688;2022-11-20T00:42:50;20.98;;;11.65;;
55784;SDS011;41709;52.536;5.688;2022-11-20T00:45:16;17.95;;;10.93;;
55784;SDS011;41709;52.536;5.688;2022-11-20T00:47:41;19.88;;;11.57;;
55784;SDS011;41709;52.536;5.688;2022-11-20T00:50:07;19.30;;;10.48;;
55784;SDS011;41709;52.536;5.688;2022-11-20T00:52:33;19.90;;;11.73;;
55784;SDS011;41709;52.536;5.688;2022-11-20T00:54:58;17.85;;;11.40;;
55784;SDS011;41709;52.536;5.688;2022-11-20T00:57:24;18.35;;;11.15;;
55784;SDS011;41709;52.536;5.688;2022-11-20T00:59:50;21.60;;;11.30;;
55784;SDS011;41709;52.536;5.688;2022-11-20T01:02:15;17.17;;;11.40;;
55784;SDS011;41709;52.536;5.688;2022-11-20T01:04:41;16.65;;;11.07;;
55784;SDS011;41709;52.536;5.688;2022-11-20T01:07:07;16.05;;;10.57;;
55784;SDS011;41709;52.536;5.688;2022-11-20T01:09:33;16.85;;;10.02;;
55784;SDS011;41709;52.536;5.688;2022-11-20T01:11:58;17.63;;;11.10;;
55784;SDS011;41709;52.536;5.688;2022-11-20T01:14:24;17.63;;;11.15;;
55784;SDS011;41709;52.536;5.688;2022-11-20T01:16:49;17.92;;;11.25;;
55784;SDS011;41709;52.536;5.688;2022-11-20T01:19:18;22.75;;;12.48;;
55784;SDS011;41709;52.536;5.688;2022-11-20T01:21:45;18.27;;;11.90;;
55784;SDS011;41709;52.536;5.688;2022-11-20T01:24:14;24.02;;;15.60;;
55784;SDS011;41709;52.536;5.688;2022-11-20T01:26:42;36.03;;;19.77;;
55784;SDS011;41709;52.536;5.688;2022-11-20T01:29:12;33.25;;;20.40;;
55784;SDS011;41709;52.536;5.688;2022-11-20T01:31:39;47.58;;;29.55;;
55784;SDS011;41709;52.536;5.688;2022-11-20T01:34:06;34.95;;;22.20;;
55784;SDS011;41709;52.536;5.688;2022-11-20T01:39:01;18.38;;;12.15;;
55784;SDS011;41709;52.536;5.688;2022-11-20T01:41:32;17.25;;;11.45;;
55784;SDS011;41709;52.536;5.688;2022-11-20T01:44:18;19.63;;;13.57;;
55784;SDS011;41709;52.536;5.688;2022-11-20T01:47:04;21.83;;;12.70;;
55784;SDS011;41709;52.536;5.688;2022-11-20T01:49:42;21.83;;;12.20;;
55784;SDS011;41709;52.536;5.688;2022-11-20T01:52:23;19.50;;;11.57;;
55784;SDS011;41709;52.536;5.688;2022-11-20T01:54:56;19.70;;;13.15;;
55784;SDS011;41709;52.536;5.688;2022-11-20T01:57:27;19.27;;;12.15;;
55784;SDS011;41709;52.536;5.688;2022-11-20T02:00:00;18.52;;;11.25;;
55784;SDS011;41709;52.536;5.688;2022-11-20T02:02:34;18.05;;;10.95;;
55784;SDS011;41709;52.536;5.688;2022-11-20T02:05:02;19.35;;;11.20;;
55784;SDS011;41709;52.536;5.688;2022-11-20T02:07:41;16.58;;;10.18;;
55784;SDS011;41709;52.536;5.688;2022-11-20T02:10:07;16.17;;;10.70;;
55784;SDS011;41709;52.536;5.688;2022-11-20T02:12:32;19.88;;;11.18;;
55784;SDS011;41709;52.536;5.688;2022-11-20T02:15:16;16.92;;;10.88;;
55784;SDS011;41709;52.536;5.688;2022-11-20T02:17:42;15.75;;;10.43;;
55784;SDS011;41709;52.536;5.688;2022-11-20T02:20:07;19.15;;;10.75;;
55784;SDS011;41709;52.536;5.688;2022-11-20T02:22:35;19.25;;;11.27;;
55784;SDS011;41709;52.536;5.688;2022-11-20T02:25:13;18.92;;;12.32;;
55784;SDS011;41709;52.536;5.688;2022-11-20T02:27:39;42.28;;;25.55;;
55784;SDS011;41709;52.536;5.688;2022-11-20T02:30:06;20.70;;;12.63;;
55784;SDS011;41709;52.536;5.688;2022-11-20T02:32:36;16.95;;;10.98;;
55784;SDS011;41709;52.536;5.688;2022-11-20T02:35:06;16.70;;;10.10;;
55784;SDS011;41709;52.536;5.688;2022-11-20T02:37:56;17.67;;;11.10;;
55784;SDS011;41709;52.536;5.688;2022-11-20T02:40:23;17.15;;;10.77;;
55784;SDS011;41709;52.536;5.688;2022-11-20T02:42:52;17.48;;;10.57;;
55784;SDS011;41709;52.536;5.688;2022-11-20T02:45:21;17.33;;;10.52;;
55784;SDS011;41709;52.536;5.688;2022-11-20T02:47:48;15.68;;;10.00;;
55784;SDS011;41709;52.536;5.688;2022-11-20T02:50:14;17.40;;;10.45;;
55784;SDS011;41709;52.536;5.688;2022-11-20T02:52:40;15.63;;;9.90;;
55784;SDS011;41709;52.536;5.688;2022-11-20T02:55:06;16.17;;;10.13;;
55784;SDS011;41709;52.536;5.688;2022-11-20T02:57:32;15.57;;;10.38;;
55784;SDS011;41709;52.536;5.688;2022-11-20T02:59:58;15.38;;;9.80;;
55784;SDS011;41709;52.536;5.688;2022-11-20T03:02:24;16.77;;;10.25;;
55784;SDS011;41709;52.536;5.688;2022-11-20T03:04:49;16.77;;;10.65;;
55784;SDS011;41709;52.536;5.688;2022-11-20T03:07:15;17.05;;;10.40;;
55784;SDS011;41709;52.536;5.688;2022-11-20T03:09:40;17.25;;;10.77;;
55784;SDS011;41709;52.536;5.688;2022-11-20T03:12:06;17.15;;;10.60;;
55784;SDS011;41709;52.536;5.688;2022-11-20T03:14:32;14.82;;;9.80;;
55784;SDS011;41709;52.536;5.688;2022-11-20T03:16:58;17.90;;;10.65;;
55784;SDS011;41709;52.536;5.688;2022-11-20T03:19:23;18.30;;;11.25;;
55784;SDS011;41709;52.536;5.688;2022-11-20T03:21:49;19.23;;;11.55;;
55784;SDS011;41709;52.536;5.688;2022-11-20T03:24:15;16.00;;;10.10;;
55784;SDS011;41709;52.536;5.688;2022-11-20T03:26:41;18.90;;;11.63;;
55784;SDS011;41709;52.536;5.688;2022-11-20T03:29:07;19.02;;;12.02;;
55784;SDS011;41709;52.536;5.688;2022-11-20T03:31:36;23.83;;;12.73;;
55784;SDS011;41709;52.536;5.688;2022-11-20T03:34:05;16.75;;;10.43;;
55784;SDS011;41709;52.536;5.688;2022-11-20T03:36:31;17.15;;;10.80;;
55784;SDS011;41709;52.536;5.688;2022-11-20T03:38:57;18.33;;;11.38;;
55784;SDS011;41709;52.536;5.688;2022-11-20T03:41:27;19.80;;;12.40;;
55784;SDS011;41709;52.536;5.688;2022-11-20T03:44:00;21.90;;;12.20;;
55784;SDS011;41709;52.536;5.688;2022-11-20T03:46:28;19.45;;;11.98;;
55784;SDS011;41709;52.536;5.688;2022-11-20T03:48:54;18.17;;;10.80;;
55784;SDS011;41709;52.536;5.688;2022-11-20T03:51:21;19.88;;;11.77;;
55784;SDS011;41709;52.536;5.688;2022-11-20T03:53:51;20.33;;;11.68;;
55784;SDS011;41709;52.536;5.688;2022-11-20T03:56:20;18.10;;;11.07;;
55784;SDS011;41709;52.536;5.688;2022-11-20T03:58:48;20.38;;;12.45;;
55784;SDS011;41709;52.536;5.688;2022-11-20T04:01:15;22.35;;;11.60;;
55784;SDS011;41709;52.536;5.688;2022-11-20T04:03:51;21.55;;;12.77;;
55784;SDS011;41709;52.536;5.688;2022-11-20T04:06:19;20.98;;;11.90;;
55784;SDS011;41709;52.536;5.688;2022-11-20T04:08:55;20.83;;;10.85;;
55784;SDS011;41709;52.536;5.688;2022-11-20T04:11:23;20.83;;;12.05;;
55784;SDS011;41709;52.536;5.688;2022-11-20T04:13:53;19.45;;;11.43;;
55784;SDS011;41709;52.536;5.688;2022-11-20T04:16:21;20.92;;;12.10;;
55784;SDS011;41709;52.536;5.688;2022-11-20T04:18:51;17.00;;;10.80;;
55784;SDS011;41709;52.536;5.688;2022-11-20T04:21:17;22.65;;;13.18;;
55784;SDS011;41709;52.536;5.688;2022-11-20T04:23:43;22.35;;;13.50;;
55784;SDS011;41709;52.536;5.688;2022-11-20T04:26:10;17.20;;;10.95;;
55784;SDS011;41709;52.536;5.688;2022-11-20T04:28:37;20.33;;;12.30;;
55784;SDS011;41709;52.536;5.688;2022-11-20T04:31:04;19.90;;;11.57;;
55784;SDS011;41709;52.536;5.688;2022-11-20T04:33:34;18.83;;;11.55;;
55784;SDS011;41709;52.536;5.688;2022-11-20T04:36:05;16.67;;;11.23;;
55784;SDS011;41709;52.536;5.688;2022-11-20T04:38:32;18.85;;;10.93;;
55784;SDS011;41709;52.536;5.688;2022-11-20T04:40:59;22.45;;;11.32;;
55784;SDS011;41709;52.536;5.688;2022-11-20T04:43:25;18.65;;;11.35;;
55784;SDS011;41709;52.536;5.688;2022-11-20T04:45:52;19.05;;;11.05;;
55784;SDS011;41709;52.536;5.688;2022-11-20T04:48:19;21.55;;;10.93;;
55784;SDS011;41709;52.536;5.688;2022-11-20T04:50:44;20.40;;;11.63;;
55784;SDS011;41709;52.536;5.688;2022-11-20T04:53:10;19.15;;;11.15;;
55784;SDS011;41709;52.536;5.688;2022-11-20T04:55:35;18.20;;;11.10;;
55784;SDS011;41709;52.536;5.688;2022-11-20T04:58:01;17.55;;;11.00;;
55784;SDS011;41709;52.536;5.688;2022-11-20T05:00:26;18.15;;;10.40;;
55784;SDS011;41709;52.536;5.688;2022-11-20T05:02:52;21.63;;;11.15;;
55784;SDS011;41709;52.536;5.688;2022-11-20T05:05:18;16.60;;;10.48;;
55784;SDS011;41709;52.536;5.688;2022-11-20T05:07:44;17.65;;;10.98;;
55784;SDS011;41709;52.536;5.688;2022-11-20T05:10:09;19.75;;;11.48;;
55784;SDS011;41709;52.536;5.688;2022-11-20T05:12:35;16.50;;;10.50;;
55784;SDS011;41709;52.536;5.688;2022-11-20T05:15:01;16.50;;;9.60;;
55784;SDS011;41709;52.536;5.688;2022-11-20T05:17:26;16.65;;;10.48;;
55784;SDS011;41709;52.536;5.688;2022-11-20T05:19:52;16.45;;;10.68;;
55784;SDS011;41709;52.536;5.688;2022-11-20T05:22:17;17.50;;;11.00;;
55784;SDS011;41709;52.536;5.688;2022-11-20T05:24:43;18.80;;;11.30;;
55784;SDS011;41709;52.536;5.688;2022-11-20T05:27:08;23.27;;;11.57;;
55784;SDS011;41709;52.536;5.688;2022-11-20T05:29:34;15.27;;;11.13;;
55784;SDS011;41709;52.536;5.688;2022-11-20T05:31:59;19.52;;;11.05;;
55784;SDS011;41709;52.536;5.688;2022-11-20T05:34:25;14.32;;;10.27;;
55784;SDS011;41709;52.536;5.688;2022-11-20T05:36:50;17.65;;;11.00;;
55784;SDS011;41709;52.536;5.688;2022-11-20T05:39:16;18.30;;;11.10;;
55784;SDS011;41709;52.536;5.688;2022-11-20T05:41:41;18.85;;;11.00;;
55784;SDS011;41709;52.536;5.688;2022-11-20T05:44:09;15.88;;;10.38;;
55784;SDS011;41709;52.536;5.688;2022-11-20T05:46:35;18.83;;;10.98;;
55784;SDS011;41709;52.536;5.688;2022-11-20T05:49:01;16.63;;;11.15;;
55784;SDS011;41709;52.536;5.688;2022-11-20T05:51:26;16.88;;;11.00;;
55784;SDS011;41709;52.536;5.688;2022-11-20T05:53:52;17.13;;;10.55;;
55784;SDS011;41709;52.536;5.688;2022-11-20T05:56:19;17.67;;;11.38;;
55784;SDS011;41709;52.536;5.688;2022-11-20T05:58:46;24.40;;;12.25;;
55784;SDS011;41709;52.536;5.688;2022-11-20T06:01:17;19.02;;;11.73;;
55784;SDS011;41709;52.536;5.688;2022-11-20T06:03:44;18.80;;;10.93;;
55784;SDS011;41709;52.536;5.688;2022-11-20T06:06:12;16.30;;;9.93;;
55784;SDS011;41709;52.536;5.688;2022-11-20T06:08:39;15.30;;;9.65;;
55784;SDS011;41709;52.536;5.688;2022-11-20T06:11:08;17.85;;;10.85;;
55784;SDS011;41709;52.536;5.688;2022-11-20T06:13:35;19.02;;;10.73;;
55784;SDS011;41709;52.536;5.688;2022-11-20T06:16:01;19.63;;;11.55;;
55784;SDS011;41709;52.536;5.688;2022-11-20T06:18:27;19.73;;;11.35;;
55784;SDS011;41709;52.536;5.688;2022-11-20T06:21:04;16.02;;;10.73;;
55784;SDS011;41709;52.536;5.688;2022-11-20T06:23:32;17.73;;;10.65;;
55784;SDS011;41709;52.536;5.688;2022-11-20T06:26:05;21.05;;;11.48;;
55784;SDS011;41709;52.536;5.688;2022-11-20T06:28:35;17.75;;;11.50;;
55784;SDS011;41709;52.536;5.688;2022-11-20T06:31:01;17.00;;;11.00;;
55784;SDS011;41709;52.536;5.688;2022-11-20T06:33:27;18.05;;;11.15;;
55784;SDS011;41709;52.536;5.688;2022-11-20T06:35:56;18.70;;;11.30;;
55784;SDS011;41709;52.536;5.688;2022-11-20T06:40:48;21.00;;;10.98;;
55784;SDS011;41709;52.536;5.688;2022-11-20T06:43:14;16.65;;;10.40;;
55784;SDS011;41709;52.536;5.688;2022-11-20T06:45:39;18.52;;;11.07;;
55784;SDS011;41709;52.536;5.688;2022-11-20T06:48:05;16.75;;;10.60;;
55784;SDS011;41709;52.536;5.688;2022-11-20T06:50:31;16.50;;;10.90;;
55784;SDS011;41709;52.536;5.688;2022-11-20T06:52:56;16.58;;;10.52;;
55784;SDS011;41709;52.536;5.688;2022-11-20T06:55:26;18.33;;;11.50;;
55784;SDS011;41709;52.536;5.688;2022-11-20T06:57:51;18.35;;;10.80;;
55784;SDS011;41709;52.536;5.688;2022-11-20T07:00:17;18.52;;;11.05;;
55784;SDS011;41709;52.536;5.688;2022-11-20T07:02:43;18.08;;;11.70;;
55784;SDS011;41709;52.536;5.688;2022-11-20T07:05:08;17.35;;;10.40;;
55784;SDS011;41709;52.536;5.688;2022-11-20T07:07:34;19.48;;;12.35;;
55784;SDS011;41709;52.536;5.688;2022-11-20T07:09:59;21.73;;;12.48;;
55784;SDS011;41709;52.536;5.688;2022-11-20T07:12:25;19.73;;;11.43;;
55784;SDS011;41709;52.536;5.688;2022-11-20T07:14:50;21.10;;;11.60;;
55784;SDS011;41709;52.536;5.688;2022-11-20T07:17:16;18.10;;;11.02;;
55784;SDS011;41709;52.536;5.688;2022-11-20T07:19:41;16.65;;;11.63;;
55784;SDS011;41709;52.536;5.688;2022-11-20T07:22:07;18.58;;;12.55;;
55784;SDS011;41709;52.536;5.688;2022-11-20T07:24:33;19.55;;;12.13;;
55784;SDS011;41709;52.536;5.688;2022-11-20T07:26:59;19.00;;;11.32;;
55784;SDS011;41709;52.536;5.688;2022-11-20T07:29:25;17.52;;;11.18;;
55784;SDS011;41709;52.536;5.688;2022-11-20T07:31:51;22.10;;;12.27;;
55784;SDS011;41709;52.536;5.688;2022-11-20T07:34:16;18.40;;;11.65;;
55784;SDS011;41709;52.536;5.688;2022-11-20T07:36:42;17.50;;;10.60;;
55784;SDS011;41709;52.536;5.688;2022-11-20T07:39:07;17.63;;;10.77;;
55784;SDS011;41709;52.536;5.688;2022-11-20T07:41:33;17.90;;;11.27;;
55784;SDS011;41709;52.536;5.688;2022-11-20T07:43:58;16.85;;;11.35;;
55784;SDS011;41709;52.536;5.688;2022-11-20T07:46:24;17.23;;;11.02;;
55784;SDS011;41709;52.536;5.688;2022-11-20T07:48:49;19.40;;;11.75;;
55784;SDS011;41709;52.536;5.688;2022-11-20T07:51:15;17.88;;;11.05;;
55784;SDS011;41709;52.536;5.688;2022-11-20T07:53:40;17.85;;;11.43;;
55784;SDS011;41709;52.536;5.688;2022-11-20T07:56:06;18.45;;;11.23;;
55784;SDS011;41709;52.536;5.688;2022-11-20T07:58:32;17.67;;;11.13;;
55784;SDS011;41709;52.536;5.688;2022-11-20T08:01:02;17.17;;;11.23;;
55784;SDS011;41709;52.536;5.688;2022-11-20T08:03:29;17.58;;;11.57;;
55784;SDS011;41709;52.536;5.688;2022-11-20T08:05:57;15.85;;;11.43;;
55784;SDS011;41709;52.536;5.688;2022-11-20T08:08:25;16.75;;;10.80;;
55784;SDS011;41709;52.536;5.688;2022-11-20T08:10:52;20.63;;;11.70;;
55784;SDS011;41709;52.536;5.688;2022-11-20T08:13:17;17.15;;;11.13;;
55784;SDS011;41709;52.536;5.688;2022-11-20T08:16:02;18.63;;;11.27;;
55784;SDS011;41709;52.536;5.688;2022-11-20T08:18:27;16.70;;;10.93;;
55784;SDS011;41709;52.536;5.688;2022-11-20T08:20:53;17.48;;;11.00;;
55784;SDS011;41709;52.536;5.688;2022-11-20T08:23:19;19.17;;;11.45;;
55784;SDS011;41709;52.536;5.688;2022-11-20T08:25:48;19.55;;;12.13;;
55784;SDS011;41709;52.536;5.688;2022-11-20T08:28:14;21.52;;;12.68;;
55784;SDS011;41709;52.536;5.688;2022-11-20T08:30:40;21.45;;;13.40;;
55784;SDS011;41709;52.536;5.688;2022-11-20T08:33:06;20.55;;;13.70;;
55784;SDS011;41709;52.536;5.688;2022-11-20T08:35:34;20.05;;;12.63;;
55784;SDS011;41709;52.536;5.688;2022-11-20T08:38:01;22.42;;;12.50;;
55784;SDS011;41709;52.536;5.688;2022-11-20T08:40:30;20.17;;;12.98;;
55784;SDS011;41709;52.536;5.688;2022-11-20T08:42:57;20.42;;;12.75;;
55784;SDS011;41709;52.536;5.688;2022-11-20T08:45:23;19.27;;;11.98;;
55784;SDS011;41709;52.536;5.688;2022-11-20T08:47:49;22.77;;;13.70;;
55784;SDS011;41709;52.536;5.688;2022-11-20T08:50:15;19.08;;;11.57;;
55784;SDS011;41709;52.536;5.688;2022-11-20T08:52:41;18.73;;;11.65;;
55784;SDS011;41709;52.536;5.688;2022-11-20T08:55:08;21.48;;;13.35;;
55784;SDS011;41709;52.536;5.688;2022-11-20T08:57:34;23.38;;;12.75;;
55784;SDS011;41709;52.536;5.688;2022-11-20T09:00:01;18.95;;;12.20;;
55784;SDS011;41709;52.536;5.688;2022-11-20T09:02:28;22.42;;;13.23;;
55784;SDS011;41709;52.536;5.688;2022-11-20T09:04:54;22.90;;;14.43;;
55784;SDS011;41709;52.536;5.688;2022-11-20T09:07:19;20.92;;;13.93;;
55784;SDS011;41709;52.536;5.688;2022-11-20T09:09:45;20.20;;;13.18;;
55784;SDS011;41709;52.536;5.688;2022-11-20T09:12:11;21.45;;;13.57;;
55784;SDS011;41709;52.536;5.688;2022-11-20T09:14:36;23.10;;;15.35;;
55784;SDS011;41709;52.536;5.688;2022-11-20T09:17:02;24.27;;;15.48;;
55784;SDS011;41709;52.536;5.688;2022-11-20T09:19:27;23.40;;;14.30;;
55784;SDS011;41709;52.536;5.688;2022-11-20T09:21:53;23.05;;;14.77;;
55784;SDS011;41709;52.536;5.688;2022-11-20T09:24:18;24.27;;;14.80;;
55784;SDS011;41709;52.536;5.688;2022-11-20T09:26:45;25.25;;;15.30;;
55784;SDS011;41709;52.536;5.688;2022-11-20T09:29:11;21.42;;;14.32;;
55784;SDS011;41709;52.536;5.688;2022-11-20T09:31:37;22.50;;;14.85;;
55784;SDS011;41709;52.536;5.688;2022-11-20T09:34:02;21.75;;;14.30;;
55784;SDS011;41709;52.536;5.688;2022-11-20T09:36:28;22.13;;;14.48;;
55784;SDS011;41709;52.536;5.688;2022-11-20T09:38:54;21.70;;;14.38;;
55784;SDS011;41709;52.536;5.688;2022-11-20T09:46:57;21.00;;;14.07;;
55784;SDS011;41709;52.536;5.688;2022-11-20T09:54:53;21.67;;;14.27;;
55784;SDS011;41709;52.536;5.688;2022-11-20T09:57:21;22.30;;;14.88;;
55784;SDS011;41709;52.536;5.688;2022-11-20T09:59:54;21.50;;;13.82;;
55784;SDS011;41709;52.536;5.688;2022-11-20T10:05:00;23.77;;;14.98;;
55784;SDS011;41709;52.536;5.688;2022-11-20T10:07:48;23.05;;;14.43;;
55784;SDS011;41709;52.536;5.688;2022-11-20T10:10:36;20.88;;;14.85;;
55784;SDS011;41709;52.536;5.688;2022-11-20T10:15:41;18.30;;;12.77;;
55784;SDS011;41709;52.536;5.688;2022-11-20T10:20:46;22.85;;;14.00;;
55784;SDS011;41709;52.536;5.688;2022-11-20T10:26:02;18.65;;;12.52;;
55784;SDS011;41709;52.536;5.688;2022-11-20T10:31:53;19.67;;;13.45;;
55784;SDS011;41709;52.536;5.688;2022-11-20T10:37:22;18.05;;;12.73;;
55784;SDS011;41709;52.536;5.688;2022-11-20T10:42:37;19.35;;;12.35;;
55784;SDS011;41709;52.536;5.688;2022-11-20T10:45:13;17.15;;;11.45;;
55784;SDS011;41709;52.536;5.688;2022-11-20T10:47:50;20.85;;;12.30;;
55784;SDS011;41709;52.536;5.688;2022-11-20T10:50:19;20.98;;;13.10;;
55784;SDS011;41709;52.536;5.688;2022-11-20T10:52:56;19.70;;;12.40;;
55784;SDS011;41709;52.536;5.688;2022-11-20T10:55:45;17.67;;;11.95;;
55784;SDS011;41709;52.536;5.688;2022-11-20T11:01:05;20.63;;;13.75;;
55784;SDS011;41709;52.536;5.688;2022-11-20T11:03:38;19.90;;;12.90;;
55784;SDS011;41709;52.536;5.688;2022-11-20T11:11:28;21.30;;;13.38;;
55784;SDS011;41709;52.536;5.688;2022-11-20T11:14:12;20.20;;;13.57;;
55784;SDS011;41709;52.536;5.688;2022-11-20T11:16:52;19.90;;;13.27;;
55784;SDS011;41709;52.536;5.688;2022-11-20T11:19:20;17.98;;;13.05;;
55784;SDS011;41709;52.536;5.688;2022-11-20T11:21:47;18.73;;;12.57;;
55784;SDS011;41709;52.536;5.688;2022-11-20T11:24:24;18.92;;;12.45;;
55784;SDS011;41709;52.536;5.688;2022-11-20T11:26:55;20.60;;;12.82;;
55784;SDS011;41709;52.536;5.688;2022-11-20T11:29:29;21.75;;;13.30;;
55784;SDS011;41709;52.536;5.688;2022-11-20T11:32:11;22.35;;;13.40;;
55784;SDS011;41709;52.536;5.688;2022-11-20T11:34:39;21.42;;;14.25;;
55784;SDS011;41709;52.536;5.688;2022-11-20T11:37:05;23.15;;;14.52;;
55784;SDS011;41709;52.536;5.688;2022-11-20T11:39:40;35.20;;;14.50;;
55784;SDS011;41709;52.536;5.688;2022-11-20T11:42:08;21.63;;;14.07;;
55784;SDS011;41709;52.536;5.688;2022-11-20T11:44:43;22.17;;;13.80;;
55784;SDS011;41709;52.536;5.688;2022-11-20T11:52:41;25.90;;;14.82;;
55784;SDS011;41709;52.536;5.688;2022-11-20T11:55:19;24.25;;;14.65;;
55784;SDS011;41709;52.536;5.688;2022-11-20T11:58:09;24.52;;;14.40;;
55784;SDS011;41709;52.536;5.688;2022-11-20T12:00:41;28.23;;;16.40;;
55784;SDS011;41709;52.536;5.688;2022-11-20T12:05:49;22.13;;;14.77;;
55784;SDS011;41709;52.536;5.688;2022-11-20T12:08:24;25.13;;;14.88;;
55784;SDS011;41709;52.536;5.688;2022-11-20T12:11:11;22.73;;;14.63;;
55784;SDS011;41709;52.536;5.688;2022-11-20T12:13:45;23.08;;;14.10;;
55784;SDS011;41709;52.536;5.688;2022-11-20T12:16:26;22.90;;;14.07;;
55784;SDS011;41709;52.536;5.688;2022-11-20T12:18:53;24.30;;;14.93;;
55784;SDS011;41709;52.536;5.688;2022-11-20T12:21:19;24.98;;;15.30;;
55784;SDS011;41709;52.536;5.688;2022-11-20T12:24:13;27.63;;;15.20;;
55784;SDS011;41709;52.536;5.688;2022-11-20T12:32:45;23.40;;;14.65;;
55784;SDS011;41709;52.536;5.688;2022-11-20T12:38:12;26.52;;;14.65;;
55784;SDS011;41709;52.536;5.688;2022-11-20T12:44:27;25.38;;;15.20;;
55784;SDS011;41709;52.536;5.688;2022-11-20T12:46:56;25.23;;;15.73;;
55784;SDS011;41709;52.536;5.688;2022-11-20T12:50:26;24.70;;;15.15;;
55784;SDS011;41709;52.536;5.688;2022-11-20T12:52:46;25.35;;;15.00;;
55784;SDS011;41709;52.536;5.688;2022-11-20T12:55:28;29.33;;;14.93;;
55784;SDS011;41709;52.536;5.688;2022-11-20T13:04:28;24.88;;;16.38;;
55784;SDS011;41709;52.536;5.688;2022-11-20T13:07:00;25.58;;;15.65;;
55784;SDS011;41709;52.536;5.688;2022-11-20T13:09:31;22.60;;;14.77;;
55784;SDS011;41709;52.536;5.688;2022-11-20T13:12:09;20.98;;;12.82;;
55784;SDS011;41709;52.536;5.688;2022-11-20T13:15:00;22.27;;;14.15;;
55784;SDS011;41709;52.536;5.688;2022-11-20T13:18:00;19.80;;;11.60;;
55784;SDS011;41709;52.536;5.688;2022-11-20T13:20:27;20.30;;;12.75;;
55784;SDS011;41709;52.536;5.688;2022-11-20T13:22:55;20.67;;;13.15;;
55784;SDS011;41709;52.536;5.688;2022-11-20T13:25:26;17.95;;;12.38;;
55784;SDS011;41709;52.536;5.688;2022-11-20T13:30:33;22.98;;;13.55;;
55784;SDS011;41709;52.536;5.688;2022-11-20T13:33:08;20.17;;;13.40;;
55784;SDS011;41709;52.536;5.688;2022-11-20T13:36:01;22.38;;;14.75;;
55784;SDS011;41709;52.536;5.688;2022-11-20T13:38:39;23.30;;;14.35;;
55784;SDS011;41709;52.536;5.688;2022-11-20T13:41:08;19.63;;;12.50;;
55784;SDS011;41709;52.536;5.688;2022-11-20T13:43:52;21.33;;;13.35;;
55784;SDS011;41709;52.536;5.688;2022-11-20T13:46:22;20.33;;;13.23;;
55784;SDS011;41709;52.536;5.688;2022-11-20T13:48:49;21.83;;;13.73;;
55784;SDS011;41709;52.536;5.688;2022-11-20T13:54:13;22.65;;;13.45;;
55784;SDS011;41709;52.536;5.688;2022-11-20T13:59:56;19.83;;;12.95;;
55784;SDS011;41709;52.536;5.688;2022-11-20T14:02:26;21.23;;;13.52;;
55784;SDS011;41709;52.536;5.688;2022-11-20T14:04:57;20.88;;;12.85;;
55784;SDS011;41709;52.536;5.688;2022-11-20T14:07:25;18.80;;;12.75;;
55784;SDS011;41709;52.536;5.688;2022-11-20T14:09:58;16.38;;;11.85;;
55784;SDS011;41709;52.536;5.688;2022-11-20T14:12:30;16.77;;;11.18;;
55784;SDS011;41709;52.536;5.688;2022-11-20T14:14:57;18.15;;;12.35;;
55784;SDS011;41709;52.536;5.688;2022-11-20T14:17:29;17.35;;;11.77;;
55784;SDS011;41709;52.536;5.688;2022-11-20T14:20:00;14.82;;;10.10;;
55784;SDS011;41709;52.536;5.688;2022-11-20T14:22:31;15.60;;;10.45;;
55784;SDS011;41709;52.536;5.688;2022-11-20T14:27:56;15.13;;;10.20;;
55784;SDS011;41709;52.536;5.688;2022-11-20T14:30:24;15.57;;;10.07;;
55784;SDS011;41709;52.536;5.688;2022-11-20T14:32:55;15.50;;;9.68;;
55784;SDS011;41709;52.536;5.688;2022-11-20T14:35:26;14.77;;;9.88;;
55784;SDS011;41709;52.536;5.688;2022-11-20T14:37:54;13.67;;;10.07;;
55784;SDS011;41709;52.536;5.688;2022-11-20T14:40:22;13.82;;;10.02;;
55784;SDS011;41709;52.536;5.688;2022-11-20T14:42:48;12.10;;;8.85;;
55784;SDS011;41709;52.536;5.688;2022-11-20T14:45:13;12.85;;;9.02;;
55784;SDS011;41709;52.536;5.688;2022-11-20T14:47:41;14.27;;;9.68;;
55784;SDS011;41709;52.536;5.688;2022-11-20T14:50:12;11.95;;;8.70;;
55784;SDS011;41709;52.536;5.688;2022-11-20T14:52:49;13.27;;;8.98;;
55784;SDS011;41709;52.536;5.688;2022-11-20T14:55:35;12.30;;;8.77;;
55784;SDS011;41709;52.536;5.688;2022-11-20T14:58:06;14.57;;;9.52;;
55784;SDS011;41709;52.536;5.688;2022-11-20T15:01:19;13.73;;;10.35;;
55784;SDS011;41709;52.536;5.688;2022-11-20T15:03:40;12.68;;;9.10;;
55784;SDS011;41709;52.536;5.688;2022-11-20T15:06:11;11.73;;;8.27;;
55784;SDS011;41709;52.536;5.688;2022-11-20T15:08:37;14.07;;;9.25;;
55784;SDS011;41709;52.536;5.688;2022-11-20T15:11:03;15.35;;;10.02;;
55784;SDS011;41709;52.536;5.688;2022-11-20T15:13:41;13.82;;;9.32;;
55784;SDS011;41709;52.536;5.688;2022-11-20T15:16:17;14.70;;;9.63;;
55784;SDS011;41709;52.536;5.688;2022-11-20T15:18:45;15.57;;;10.17;;
55784;SDS011;41709;52.536;5.688;2022-11-20T15:21:15;14.65;;;9.93;;
55784;SDS011;41709;52.536;5.688;2022-11-20T15:23:42;16.35;;;11.48;;
55784;SDS011;41709;52.536;5.688;2022-11-20T15:26:08;16.30;;;11.32;;
55784;SDS011;41709;52.536;5.688;2022-11-20T15:28:37;21.15;;;12.23;;
55784;SDS011;41709;52.536;5.688;2022-11-20T15:31:05;19.27;;;12.20;;
55784;SDS011;41709;52.536;5.688;2022-11-20T15:33:31;22.50;;;13.02;;
55784;SDS011;41709;52.536;5.688;2022-11-20T15:35:57;21.77;;;12.95;;
55784;SDS011;41709;52.536;5.688;2022-11-20T15:38:23;19.35;;;11.95;;
55784;SDS011;41709;52.536;5.688;2022-11-20T15:40:49;17.42;;;11.98;;
55784;SDS011;41709;52.536;5.688;2022-11-20T15:43:15;18.83;;;13.40;;
55784;SDS011;41709;52.536;5.688;2022-11-20T15:45:44;21.98;;;13.75;;
55784;SDS011;41709;52.536;5.688;2022-11-20T15:48:17;19.77;;;13.35;;
55784;SDS011;41709;52.536;5.688;2022-11-20T15:50:52;20.73;;;13.88;;
55784;SDS011;41709;52.536;5.688;2022-11-20T15:53:28;20.85;;;13.48;;
55784;SDS011;41709;52.536;5.688;2022-11-20T15:55:53;24.70;;;14.18;;
55784;SDS011;41709;52.536;5.688;2022-11-20T15:58:19;23.98;;;15.48;;